Glenda Meredith — A8TX2 — position and weather

sailwx.info

Track history (hours):
 
Tides and Currents Weather Stations Pressure Air Temp Water Temp Dewpoint Dewpoint Depression Visibility Wind Speed Wind Dir Waves Ship Positions

Glenda Meredith

Last reported at 2017-Mar-19 21:30 UTC. Time now 2017-Mar-26 13:13 UTC.
Position N 09°13' W 079°55'.

Length 183 m; draft 11.3 m.

Type: Ship. MMSI: 636014450.

Date/timePositionNaut miles runAvg speedWind from/ knotsBaromVisibWave heightAir tempDewpointWater temp
2017-Mar-19 21:30N 09°13' W 079°55'1 0.2
2017-Mar-19 17:08N 09°14' W 079°56'0 0.0
2017-Mar-19 16:32N 09°14' W 079°56'0 0.0
2017-Mar-19 15:17N 09°14' W 079°56'0 0.0
2017-Mar-19 14:32N 09°14' W 079°56'0 0.0
2017-Mar-19 13:32N 09°14' W 079°56'1 0.4
2017-Mar-19 10:32N 09°15' W 079°55'1 1.3
2017-Mar-19 09:31N 09°16' W 079°55'0 0.5
2017-Mar-19 08:31N 09°17' W 079°55'3 3.2
2017-Mar-19 07:33N 09°20' W 079°55'6 6.4
2017-Mar-19 06:33N 09°26' W 079°56'0 0.4
2017-Mar-19 05:31N 09°26' W 079°56'0 0.0
2017-Mar-19 04:28N 09°26' W 079°56'0 0.0
2017-Mar-19 03:31N 09°26' W 079°56'0 0.0
2017-Mar-19 02:31N 09°26' W 079°56'0 0.0
2017-Mar-19 01:28N 09°26' W 079°56'0 0.0
2017-Mar-19 00:25N 09°26' W 079°56'0 0.0
2017-Mar-18 23:31N 09°26' W 079°56'2 1.6
2017-Mar-18 22:32N 09°27' W 079°55'  
2017-Mar-13 11:18N 29°28' W 094°51'810.4
2017-Mar-13 10:33N 29°35' W 094°56'9 8.7
2017-Mar-13 09:33N 29°42' W 095°01'5 4.9
2017-Mar-13 08:33N 29°45' W 095°06'1 0.1
2017-Mar-12 22:33N 29°44' W 095°07'0 0.0
2017-Mar-12 00:34N 29°44' W 095°07'3 3.3
2017-Mar-11 23:34N 29°45' W 095°04'7 7.1
2017-Mar-11 22:34N 29°39' W 094°58'9 8.7
2017-Mar-11 21:33N 29°32' W 094°53'1310.9
2017-Mar-11 20:24N 29°21' W 094°46'  
Track history (hours):
 
Tides and Currents Weather Stations Pressure Air Temp Water Temp Dewpoint Dewpoint Depression Visibility Wind Speed Wind Dir Waves Ship Positions

Glenda Meredith

Last reported at 2017-Mar-19 21:30 UTC. Time now 2017-Mar-26 13:13 UTC.
Position N 09°13' W 079°55'.

Length 183 m; draft 11.3 m.

Type: Ship. MMSI: 636014450.

Date/timePositionNaut miles runAvg speedWind from/ knotsBaromVisibWave heightAir tempDewpointWater temp
2017-Mar-19 21:30N 09°13' W 079°55'1 0.2
2017-Mar-19 17:08N 09°14' W 079°56'0 0.0
2017-Mar-19 16:32N 09°14' W 079°56'0 0.0
2017-Mar-19 15:17N 09°14' W 079°56'0 0.0
2017-Mar-19 14:32N 09°14' W 079°56'0 0.0
2017-Mar-19 13:32N 09°14' W 079°56'1 0.4
2017-Mar-19 10:32N 09°15' W 079°55'1 1.3
2017-Mar-19 09:31N 09°16' W 079°55'0 0.5
2017-Mar-19 08:31N 09°17' W 079°55'3 3.2
2017-Mar-19 07:33N 09°20' W 079°55'6 6.4
2017-Mar-19 06:33N 09°26' W 079°56'0 0.4
2017-Mar-19 05:31N 09°26' W 079°56'0 0.0
2017-Mar-19 04:28N 09°26' W 079°56'0 0.0
2017-Mar-19 03:31N 09°26' W 079°56'0 0.0
2017-Mar-19 02:31N 09°26' W 079°56'0 0.0
2017-Mar-19 01:28N 09°26' W 079°56'0 0.0
2017-Mar-19 00:25N 09°26' W 079°56'0 0.0
2017-Mar-18 23:31N 09°26' W 079°56'2 1.6
2017-Mar-18 22:32N 09°27' W 079°55'  
2017-Mar-13 11:18N 29°28' W 094°51'810.4
2017-Mar-13 10:33N 29°35' W 094°56'9 8.7
2017-Mar-13 09:33N 29°42' W 095°01'5 4.9
2017-Mar-13 08:33N 29°45' W 095°06'1 0.1
2017-Mar-12 22:33N 29°44' W 095°07'0 0.0
2017-Mar-12 00:34N 29°44' W 095°07'3 3.3
2017-Mar-11 23:34N 29°45' W 095°04'7 7.1
2017-Mar-11 22:34N 29°39' W 094°58'9 8.7
2017-Mar-11 21:33N 29°32' W 094°53'1310.9
2017-Mar-11 20:24N 29°21' W 094°46'  

Dump ship's entire track history